sensor_id;sensor_type;location;lat;lon;timestamp;P1;durP1;ratioP1;P2;durP2;ratioP2
76105;SDS011;64832;45.274;5.880;2023-03-11T07:41:06;5.05;;;1.20;;
76105;SDS011;64832;45.274;5.880;2023-03-11T07:43:33;4.00;;;1.30;;
76105;SDS011;64832;45.274;5.880;2023-03-11T07:46:02;3.30;;;0.85;;
76105;SDS011;64832;45.274;5.880;2023-03-11T07:48:35;1.55;;;0.90;;
76105;SDS011;64832;45.274;5.880;2023-03-11T07:51:05;1.85;;;0.90;;
76105;SDS011;64832;45.274;5.880;2023-03-11T07:53:36;4.80;;;0.90;;
76105;SDS011;64832;45.274;5.880;2023-03-11T07:56:01;0.90;;;0.80;;
76105;SDS011;64832;45.274;5.880;2023-03-11T07:58:28;1.77;;;0.70;;
76105;SDS011;64832;45.274;5.880;2023-03-11T08:00:53;1.45;;;0.68;;
76105;SDS011;64832;45.274;5.880;2023-03-11T08:03:21;7.55;;;1.02;;
76105;SDS011;64832;45.274;5.880;2023-03-11T08:05:48;2.83;;;1.05;;
76105;SDS011;64832;45.274;5.880;2023-03-11T08:08:13;1.17;;;0.80;;
76105;SDS011;64832;45.274;5.880;2023-03-11T08:10:38;1.70;;;0.70;;
76105;SDS011;64832;45.274;5.880;2023-03-11T08:13:04;2.10;;;0.70;;
76105;SDS011;64832;45.274;5.880;2023-03-11T08:15:30;3.60;;;0.73;;
76105;SDS011;64832;45.274;5.880;2023-03-11T08:17:56;3.75;;;0.88;;
76105;SDS011;64832;45.274;5.880;2023-03-11T08:20:21;7.13;;;0.80;;
76105;SDS011;64832;45.274;5.880;2023-03-11T08:22:46;1.35;;;0.70;;
76105;SDS011;64832;45.274;5.880;2023-03-11T08:25:12;3.00;;;0.75;;
76105;SDS011;64832;45.274;5.880;2023-03-11T08:27:37;1.20;;;0.75;;
76105;SDS011;64832;45.274;5.880;2023-03-11T08:30:04;3.17;;;0.90;;
76105;SDS011;64832;45.274;5.880;2023-03-11T08:32:31;1.80;;;0.80;;
76105;SDS011;64832;45.274;5.880;2023-03-11T08:34:57;2.08;;;0.90;;
76105;SDS011;64832;45.274;5.880;2023-03-11T08:37:23;3.63;;;0.80;;
76105;SDS011;64832;45.274;5.880;2023-03-11T08:39:48;5.53;;;0.95;;
76105;SDS011;64832;45.274;5.880;2023-03-11T08:42:14;1.23;;;0.80;;
76105;SDS011;64832;45.274;5.880;2023-03-11T08:44:40;0.80;;;0.60;;
76105;SDS011;64832;45.274;5.880;2023-03-11T08:47:05;8.07;;;0.90;;
76105;SDS011;64832;45.274;5.880;2023-03-11T08:49:31;9.50;;;0.80;;
76105;SDS011;64832;45.274;5.880;2023-03-11T08:51:56;9.07;;;0.90;;
76105;SDS011;64832;45.274;5.880;2023-03-11T08:54:21;11.43;;;0.90;;
76105;SDS011;64832;45.274;5.880;2023-03-11T08:56:47;18.13;;;1.38;;
76105;SDS011;64832;45.274;5.880;2023-03-11T08:59:12;19.98;;;1.77;;
76105;SDS011;64832;45.274;5.880;2023-03-11T09:01:38;9.80;;;1.27;;
76105;SDS011;64832;45.274;5.880;2023-03-11T09:04:04;10.65;;;1.55;;
76105;SDS011;64832;45.274;5.880;2023-03-11T09:06:29;18.00;;;1.20;;
76105;SDS011;64832;45.274;5.880;2023-03-11T09:08:55;11.57;;;1.40;;
76105;SDS011;64832;45.274;5.880;2023-03-11T09:11:21;4.75;;;1.15;;
76105;SDS011;64832;45.274;5.880;2023-03-11T09:13:47;10.77;;;1.10;;
76105;SDS011;64832;45.274;5.880;2023-03-11T09:16:21;12.43;;;2.58;;
76105;SDS011;64832;45.274;5.880;2023-03-11T09:18:47;8.55;;;1.65;;
76105;SDS011;64832;45.274;5.880;2023-03-11T09:21:13;4.85;;;1.23;;
76105;SDS011;64832;45.274;5.880;2023-03-11T09:23:39;10.85;;;1.80;;
76105;SDS011;64832;45.274;5.880;2023-03-11T09:26:04;6.38;;;1.63;;
76105;SDS011;64832;45.274;5.880;2023-03-11T09:28:30;18.70;;;1.60;;
76105;SDS011;64832;45.274;5.880;2023-03-11T09:30:55;15.80;;;2.00;;
76105;SDS011;64832;45.274;5.880;2023-03-11T09:33:21;11.98;;;1.25;;
76105;SDS011;64832;45.274;5.880;2023-03-11T09:35:46;7.60;;;1.73;;
76105;SDS011;64832;45.274;5.880;2023-03-11T09:38:12;5.47;;;1.10;;
76105;SDS011;64832;45.274;5.880;2023-03-11T09:40:44;9.52;;;1.42;;
76105;SDS011;64832;45.274;5.880;2023-03-11T09:46:05;5.32;;;1.08;;
76105;SDS011;64832;45.274;5.880;2023-03-11T09:48:39;5.20;;;1.17;;
76105;SDS011;64832;45.274;5.880;2023-03-11T09:51:16;4.15;;;1.13;;
76105;SDS011;64832;45.274;5.880;2023-03-11T09:53:51;2.17;;;1.00;;
76105;SDS011;64832;45.274;5.880;2023-03-11T09:56:20;6.85;;;1.23;;
76105;SDS011;64832;45.274;5.880;2023-03-11T09:58:47;7.80;;;1.23;;
76105;SDS011;64832;45.274;5.880;2023-03-11T10:01:33;3.88;;;1.42;;
76105;SDS011;64832;45.274;5.880;2023-03-11T10:06:35;3.45;;;1.00;;
76105;SDS011;64832;45.274;5.880;2023-03-11T10:22:35;5.30;;;4.80;;
76105;SDS011;64832;45.274;5.880;2023-03-11T10:25:14;5.10;;;2.80;;
76105;SDS011;64832;45.274;5.880;2023-03-11T10:27:49;9.40;;;2.05;;
76105;SDS011;64832;45.274;5.880;2023-03-11T10:30:53;2.65;;;1.50;;
76105;SDS011;64832;45.274;5.880;2023-03-11T10:33:36;4.57;;;1.55;;
76105;SDS011;64832;45.274;5.880;2023-03-11T10:36:12;5.68;;;1.65;;
76105;SDS011;64832;45.274;5.880;2023-03-11T10:38:44;6.82;;;1.67;;
76105;SDS011;64832;45.274;5.880;2023-03-11T10:41:14;11.70;;;1.42;;
76105;SDS011;64832;45.274;5.880;2023-03-11T10:43:50;4.30;;;1.40;;
76105;SDS011;64832;45.274;5.880;2023-03-11T10:46:24;4.78;;;1.40;;
76105;SDS011;64832;45.274;5.880;2023-03-11T10:48:51;7.85;;;1.23;;
76105;SDS011;64832;45.274;5.880;2023-03-11T10:51:18;6.07;;;1.30;;
76105;SDS011;64832;45.274;5.880;2023-03-11T10:53:51;5.55;;;1.50;;
76105;SDS011;64832;45.274;5.880;2023-03-11T10:56:26;5.53;;;1.30;;
76105;SDS011;64832;45.274;5.880;2023-03-11T10:58:52;6.95;;;1.20;;
76105;SDS011;64832;45.274;5.880;2023-03-11T11:01:18;4.13;;;1.40;;
76105;SDS011;64832;45.274;5.880;2023-03-11T11:03:46;4.07;;;1.27;;
76105;SDS011;64832;45.274;5.880;2023-03-11T11:06:30;4.60;;;1.33;;
76105;SDS011;64832;45.274;5.880;2023-03-11T11:09:12;6.95;;;1.30;;
76105;SDS011;64832;45.274;5.880;2023-03-11T11:11:59;6.05;;;1.20;;
76105;SDS011;64832;45.274;5.880;2023-03-11T11:14:43;3.40;;;1.10;;
76105;SDS011;64832;45.274;5.880;2023-03-11T11:17:22;1.27;;;1.00;;
76105;SDS011;64832;45.274;5.880;2023-03-11T11:19:51;6.25;;;1.15;;
76105;SDS011;64832;45.274;5.880;2023-03-11T11:22:19;4.53;;;1.10;;
76105;SDS011;64832;45.274;5.880;2023-03-11T11:24:46;4.60;;;1.00;;
76105;SDS011;64832;45.274;5.880;2023-03-11T11:30:01;3.90;;;1.10;;
76105;SDS011;64832;45.274;5.880;2023-03-11T11:32:33;1.98;;;0.98;;
76105;SDS011;64832;45.274;5.880;2023-03-11T11:35:03;5.60;;;1.10;;
76105;SDS011;64832;45.274;5.880;2023-03-11T11:37:32;3.47;;;0.98;;
76105;SDS011;64832;45.274;5.880;2023-03-11T11:40:04;5.55;;;1.15;;
76105;SDS011;64832;45.274;5.880;2023-03-11T11:42:37;4.20;;;1.00;;
76105;SDS011;64832;45.274;5.880;2023-03-11T11:45:09;2.22;;;1.05;;
76105;SDS011;64832;45.274;5.880;2023-03-11T11:47:38;5.22;;;1.00;;
76105;SDS011;64832;45.274;5.880;2023-03-11T11:50:13;2.58;;;1.08;;
76105;SDS011;64832;45.274;5.880;2023-03-11T11:52:47;3.80;;;0.90;;
76105;SDS011;64832;45.274;5.880;2023-03-11T11:55:21;2.17;;;1.08;;
76105;SDS011;64832;45.274;5.880;2023-03-11T11:57:50;4.00;;;0.98;;
76105;SDS011;64832;45.274;5.880;2023-03-11T12:00:17;3.08;;;1.00;;
76105;SDS011;64832;45.274;5.880;2023-03-11T12:05:23;1.02;;;0.90;;
76105;SDS011;64832;45.274;5.880;2023-03-11T12:11:05;2.03;;;0.80;;
76105;SDS011;64832;45.274;5.880;2023-03-11T12:19:19;3.15;;;1.10;;
76105;SDS011;64832;45.274;5.880;2023-03-11T12:27:26;2.30;;;0.90;;
76105;SDS011;64832;45.274;5.880;2023-03-11T12:29:59;4.00;;;1.70;;
76105;SDS011;64832;45.274;5.880;2023-03-11T12:32:35;3.22;;;1.08;;
76105;SDS011;64832;45.274;5.880;2023-03-11T12:35:18;2.45;;;1.08;;
76105;SDS011;64832;45.274;5.880;2023-03-11T12:43:22;2.63;;;1.50;;
76105;SDS011;64832;45.274;5.880;2023-03-11T12:46:05;2.20;;;1.20;;
76105;SDS011;64832;45.274;5.880;2023-03-11T12:48:33;3.25;;;1.35;;
76105;SDS011;64832;45.274;5.880;2023-03-11T12:51:00;2.92;;;1.08;;
76105;SDS011;64832;45.274;5.880;2023-03-11T12:53:48;4.40;;;1.10;;
76105;SDS011;64832;45.274;5.880;2023-03-11T13:09:58;2.85;;;1.50;;
76105;SDS011;64832;45.274;5.880;2023-03-11T13:12:37;2.35;;;1.10;;
76105;SDS011;64832;45.274;5.880;2023-03-11T13:17:54;1.70;;;1.02;;
76105;SDS011;64832;45.274;5.880;2023-03-11T13:25:42;2.90;;;1.25;;
76105;SDS011;64832;45.274;5.880;2023-03-11T13:34:17;1.60;;;0.90;;
76105;SDS011;64832;45.274;5.880;2023-03-11T13:39:38;3.10;;;0.93;;
76105;SDS011;64832;45.274;5.880;2023-03-11T13:42:19;3.00;;;1.10;;
76105;SDS011;64832;45.274;5.880;2023-03-11T13:45:02;1.25;;;1.15;;
76105;SDS011;64832;45.274;5.880;2023-03-11T13:47:31;1.40;;;1.02;;
76105;SDS011;64832;45.274;5.880;2023-03-11T13:50:08;2.30;;;1.17;;
76105;SDS011;64832;45.274;5.880;2023-03-11T13:52:46;2.13;;;0.98;;
76105;SDS011;64832;45.274;5.880;2023-03-11T13:55:17;1.40;;;0.98;;
76105;SDS011;64832;45.274;5.880;2023-03-11T13:57:52;2.47;;;1.10;;
76105;SDS011;64832;45.274;5.880;2023-03-11T14:00:20;1.00;;;1.00;;
76105;SDS011;64832;45.274;5.880;2023-03-11T14:02:56;1.73;;;1.23;;
76105;SDS011;64832;45.274;5.880;2023-03-11T14:05:31;2.17;;;1.27;;
76105;SDS011;64832;45.274;5.880;2023-03-11T14:10:51;1.17;;;0.80;;
76105;SDS011;64832;45.274;5.880;2023-03-11T14:13:20;2.55;;;1.00;;
76105;SDS011;64832;45.274;5.880;2023-03-11T14:15:51;1.42;;;1.05;;
76105;SDS011;64832;45.274;5.880;2023-03-11T14:18:30;1.23;;;1.13;;
76105;SDS011;64832;45.274;5.880;2023-03-11T14:20:56;3.97;;;1.58;;
76105;SDS011;64832;45.274;5.880;2023-03-11T14:23:26;8.15;;;3.40;;
76105;SDS011;64832;45.274;5.880;2023-03-11T14:26:01;1.95;;;1.63;;
76105;SDS011;64832;45.274;5.880;2023-03-11T14:28:31;3.63;;;2.38;;
76105;SDS011;64832;45.274;5.880;2023-03-11T14:31:00;2.88;;;1.80;;
76105;SDS011;64832;45.274;5.880;2023-03-11T14:33:27;6.50;;;1.70;;
76105;SDS011;64832;45.274;5.880;2023-03-11T14:35:53;4.38;;;2.90;;
76105;SDS011;64832;45.274;5.880;2023-03-11T14:38:28;4.65;;;2.78;;
76105;SDS011;64832;45.274;5.880;2023-03-11T14:40:55;4.43;;;2.05;;
76105;SDS011;64832;45.274;5.880;2023-03-11T14:43:23;2.10;;;1.80;;
76105;SDS011;64832;45.274;5.880;2023-03-11T14:45:48;5.50;;;1.75;;
76105;SDS011;64832;45.274;5.880;2023-03-11T14:48:30;4.85;;;1.90;;
76105;SDS011;64832;45.274;5.880;2023-03-11T14:50:57;4.65;;;2.40;;
76105;SDS011;64832;45.274;5.880;2023-03-11T14:55:55;3.58;;;2.50;;
76105;SDS011;64832;45.274;5.880;2023-03-11T15:01:08;3.58;;;2.20;;
76105;SDS011;64832;45.274;5.880;2023-03-11T15:03:36;3.53;;;2.00;;
76105;SDS011;64832;45.274;5.880;2023-03-11T15:06:09;4.30;;;1.90;;
76105;SDS011;64832;45.274;5.880;2023-03-11T15:08:45;2.80;;;1.67;;
76105;SDS011;64832;45.274;5.880;2023-03-11T15:11:17;3.72;;;1.63;;
76105;SDS011;64832;45.274;5.880;2023-03-11T15:13:45;2.90;;;1.80;;
76105;SDS011;64832;45.274;5.880;2023-03-11T15:16:25;2.70;;;1.58;;
76105;SDS011;64832;45.274;5.880;2023-03-11T15:18:54;2.22;;;1.70;;
76105;SDS011;64832;45.274;5.880;2023-03-11T15:21:20;4.38;;;1.70;;
76105;SDS011;64832;45.274;5.880;2023-03-11T15:23:51;3.85;;;1.60;;
76105;SDS011;64832;45.274;5.880;2023-03-11T15:26:31;2.05;;;1.60;;
76105;SDS011;64832;45.274;5.880;2023-03-11T15:28:59;2.10;;;1.65;;
76105;SDS011;64832;45.274;5.880;2023-03-11T15:31:27;3.90;;;1.50;;
76105;SDS011;64832;45.274;5.880;2023-03-11T15:36:43;1.73;;;1.50;;
76105;SDS011;64832;45.274;5.880;2023-03-11T15:41:38;1.75;;;1.30;;
76105;SDS011;64832;45.274;5.880;2023-03-11T15:44:13;2.40;;;1.38;;
76105;SDS011;64832;45.274;5.880;2023-03-11T15:46:49;2.13;;;1.48;;
76105;SDS011;64832;45.274;5.880;2023-03-11T15:49:15;3.78;;;1.50;;
76105;SDS011;64832;45.274;5.880;2023-03-11T15:51:40;1.58;;;1.40;;
76105;SDS011;64832;45.274;5.880;2023-03-11T15:54:05;1.80;;;1.30;;
76105;SDS011;64832;45.274;5.880;2023-03-11T15:56:31;2.20;;;1.30;;
76105;SDS011;64832;45.274;5.880;2023-03-11T15:58:57;1.98;;;1.40;;
76105;SDS011;64832;45.274;5.880;2023-03-11T16:01:23;1.42;;;1.30;;
76105;SDS011;64832;45.274;5.880;2023-03-11T16:03:52;7.95;;;1.13;;
76105;SDS011;64832;45.274;5.880;2023-03-11T16:06:18;2.85;;;1.30;;
76105;SDS011;64832;45.274;5.880;2023-03-11T16:08:43;2.10;;;1.30;;
76105;SDS011;64832;45.274;5.880;2023-03-11T16:11:10;1.73;;;1.40;;
76105;SDS011;64832;45.274;5.880;2023-03-11T16:13:36;5.47;;;1.23;;
76105;SDS011;64832;45.274;5.880;2023-03-11T16:16:02;1.95;;;1.40;;
76105;SDS011;64832;45.274;5.880;2023-03-11T16:18:27;3.75;;;1.30;;
76105;SDS011;64832;45.274;5.880;2023-03-11T16:20:53;6.55;;;3.45;;
76105;SDS011;64832;45.274;5.880;2023-03-11T16:23:23;5.30;;;2.80;;
76105;SDS011;64832;45.274;5.880;2023-03-11T16:25:49;5.72;;;2.90;;
76105;SDS011;64832;45.274;5.880;2023-03-11T16:28:17;4.03;;;2.17;;
76105;SDS011;64832;45.274;5.880;2023-03-11T16:30:43;4.82;;;2.40;;
76105;SDS011;64832;45.274;5.880;2023-03-11T16:33:08;3.67;;;2.17;;
76105;SDS011;64832;45.274;5.880;2023-03-11T16:35:34;3.67;;;2.33;;
76105;SDS011;64832;45.274;5.880;2023-03-11T16:38:00;3.20;;;2.00;;
76105;SDS011;64832;45.274;5.880;2023-03-11T16:40:26;4.18;;;2.40;;
76105;SDS011;64832;45.274;5.880;2023-03-11T16:43:03;3.63;;;1.90;;
76105;SDS011;64832;45.274;5.880;2023-03-11T16:45:29;2.63;;;2.33;;
76105;SDS011;64832;45.274;5.880;2023-03-11T16:47:55;3.80;;;2.60;;
76105;SDS011;64832;45.274;5.880;2023-03-11T16:50:20;2.95;;;2.33;;
76105;SDS011;64832;45.274;5.880;2023-03-11T16:52:48;3.35;;;2.20;;
76105;SDS011;64832;45.274;5.880;2023-03-11T16:55:14;2.85;;;2.10;;
76105;SDS011;64832;45.274;5.880;2023-03-11T16:57:40;4.82;;;2.20;;
76105;SDS011;64832;45.274;5.880;2023-03-11T17:00:05;4.72;;;2.10;;
76105;SDS011;64832;45.274;5.880;2023-03-11T17:02:34;4.38;;;2.30;;
76105;SDS011;64832;45.274;5.880;2023-03-11T17:05:00;4.95;;;2.42;;
76105;SDS011;64832;45.274;5.880;2023-03-11T17:07:26;3.58;;;2.40;;
76105;SDS011;64832;45.274;5.880;2023-03-11T17:09:52;3.33;;;2.30;;
76105;SDS011;64832;45.274;5.880;2023-03-11T17:12:17;5.90;;;2.63;;
76105;SDS011;64832;45.274;5.880;2023-03-11T17:14:43;7.05;;;2.85;;
76105;SDS011;64832;45.274;5.880;2023-03-11T17:17:10;4.28;;;2.40;;
76105;SDS011;64832;45.274;5.880;2023-03-11T17:19:35;9.73;;;3.22;;
76105;SDS011;64832;45.274;5.880;2023-03-11T17:22:01;6.85;;;3.35;;
76105;SDS011;64832;45.274;5.880;2023-03-11T17:24:27;7.75;;;3.95;;
76105;SDS011;64832;45.274;5.880;2023-03-11T17:26:53;16.13;;;3.05;;
76105;SDS011;64832;45.274;5.880;2023-03-11T17:29:18;4.15;;;3.03;;
76105;SDS011;64832;45.274;5.880;2023-03-11T17:31:43;3.83;;;2.90;;
76105;SDS011;64832;45.274;5.880;2023-03-11T17:34:09;7.80;;;3.17;;
76105;SDS011;64832;45.274;5.880;2023-03-11T17:36:34;7.78;;;4.20;;
76105;SDS011;64832;45.274;5.880;2023-03-11T17:39:00;6.40;;;3.40;;
76105;SDS011;64832;45.274;5.880;2023-03-11T17:41:25;6.25;;;3.35;;
76105;SDS011;64832;45.274;5.880;2023-03-11T17:43:51;7.68;;;4.00;;
76105;SDS011;64832;45.274;5.880;2023-03-11T17:46:16;7.30;;;3.30;;
76105;SDS011;64832;45.274;5.880;2023-03-11T17:48:44;6.00;;;3.83;;
76105;SDS011;64832;45.274;5.880;2023-03-11T17:51:21;7.68;;;3.65;;
76105;SDS011;64832;45.274;5.880;2023-03-11T17:53:49;6.25;;;3.15;;
76105;SDS011;64832;45.274;5.880;2023-03-11T17:56:16;5.65;;;3.30;;
76105;SDS011;64832;45.274;5.880;2023-03-11T17:58:44;4.07;;;3.15;;
76105;SDS011;64832;45.274;5.880;2023-03-11T18:01:11;6.35;;;3.30;;
76105;SDS011;64832;45.274;5.880;2023-03-11T18:03:41;6.30;;;3.20;;
76105;SDS011;64832;45.274;5.880;2023-03-11T18:06:07;5.63;;;3.47;;
76105;SDS011;64832;45.274;5.880;2023-03-11T18:08:32;5.85;;;3.85;;
76105;SDS011;64832;45.274;5.880;2023-03-11T18:11:00;6.28;;;3.10;;
76105;SDS011;64832;45.274;5.880;2023-03-11T18:13:29;5.70;;;3.20;;
76105;SDS011;64832;45.274;5.880;2023-03-11T18:15:58;9.85;;;3.53;;
76105;SDS011;64832;45.274;5.880;2023-03-11T18:18:26;5.80;;;3.38;;
76105;SDS011;64832;45.274;5.880;2023-03-11T18:20:52;6.13;;;3.22;;
76105;SDS011;64832;45.274;5.880;2023-03-11T18:23:17;6.35;;;3.88;;
76105;SDS011;64832;45.274;5.880;2023-03-11T18:25:43;5.65;;;3.47;;
76105;SDS011;64832;45.274;5.880;2023-03-11T18:28:09;7.35;;;3.30;;
76105;SDS011;64832;45.274;5.880;2023-03-11T18:30:35;6.03;;;3.20;;
76105;SDS011;64832;45.274;5.880;2023-03-11T18:33:01;5.93;;;3.00;;
76105;SDS011;64832;45.274;5.880;2023-03-11T18:35:26;4.38;;;3.33;;
76105;SDS011;64832;45.274;5.880;2023-03-11T18:37:52;7.22;;;3.50;;
76105;SDS011;64832;45.274;5.880;2023-03-11T18:40:17;4.93;;;3.40;;
76105;SDS011;64832;45.274;5.880;2023-03-11T18:42:43;7.75;;;3.60;;
76105;SDS011;64832;45.274;5.880;2023-03-11T18:45:08;6.72;;;3.45;;
76105;SDS011;64832;45.274;5.880;2023-03-11T18:47:36;8.23;;;3.65;;
76105;SDS011;64832;45.274;5.880;2023-03-11T18:50:02;8.68;;;4.22;;
76105;SDS011;64832;45.274;5.880;2023-03-11T18:52:28;6.00;;;3.42;;
76105;SDS011;64832;45.274;5.880;2023-03-11T18:54:53;6.18;;;3.42;;
76105;SDS011;64832;45.274;5.880;2023-03-11T18:57:18;8.35;;;3.92;;
76105;SDS011;64832;45.274;5.880;2023-03-11T18:59:45;6.15;;;4.03;;
76105;SDS011;64832;45.274;5.880;2023-03-11T19:02:11;6.03;;;4.40;;
76105;SDS011;64832;45.274;5.880;2023-03-11T19:04:36;7.57;;;3.90;;
76105;SDS011;64832;45.274;5.880;2023-03-11T19:07:02;5.07;;;3.58;;
76105;SDS011;64832;45.274;5.880;2023-03-11T19:09:27;5.57;;;3.58;;
76105;SDS011;64832;45.274;5.880;2023-03-11T19:11:53;8.35;;;3.60;;
76105;SDS011;64832;45.274;5.880;2023-03-11T19:14:18;26.55;;;4.50;;
76105;SDS011;64832;45.274;5.880;2023-03-11T19:16:43;6.18;;;3.92;;
76105;SDS011;64832;45.274;5.880;2023-03-11T19:19:09;5.75;;;3.80;;
76105;SDS011;64832;45.274;5.880;2023-03-11T19:21:35;7.47;;;3.90;;
76105;SDS011;64832;45.274;5.880;2023-03-11T19:24:00;5.80;;;3.85;;
76105;SDS011;64832;45.274;5.880;2023-03-11T19:26:26;5.15;;;3.70;;
76105;SDS011;64832;45.274;5.880;2023-03-11T19:28:51;3.83;;;3.03;;
76105;SDS011;64832;45.274;5.880;2023-03-11T19:31:16;4.53;;;3.42;;
76105;SDS011;64832;45.274;5.880;2023-03-11T19:33:42;6.78;;;3.55;;
76105;SDS011;64832;45.274;5.880;2023-03-11T19:36:11;5.03;;;3.85;;
76105;SDS011;64832;45.274;5.880;2023-03-11T19:38:36;5.25;;;3.70;;
76105;SDS011;64832;45.274;5.880;2023-03-11T19:43:29;4.78;;;3.35;;
76105;SDS011;64832;45.274;5.880;2023-03-11T19:45:55;4.82;;;3.83;;
76105;SDS011;64832;45.274;5.880;2023-03-11T19:48:20;4.45;;;3.55;;
76105;SDS011;64832;45.274;5.880;2023-03-11T19:50:47;5.60;;;3.47;;
76105;SDS011;64832;45.274;5.880;2023-03-11T19:53:13;7.88;;;3.60;;
76105;SDS011;64832;45.274;5.880;2023-03-11T19:55:44;4.57;;;3.88;;
76105;SDS011;64832;45.274;5.880;2023-03-11T19:58:12;4.78;;;3.40;;
76105;SDS011;64832;45.274;5.880;2023-03-11T20:00:38;5.90;;;3.33;;
76105;SDS011;64832;45.274;5.880;2023-03-11T20:03:04;4.40;;;3.33;;
76105;SDS011;64832;45.274;5.880;2023-03-11T20:05:30;3.63;;;3.30;;
76105;SDS011;64832;45.274;5.880;2023-03-11T20:07:55;4.03;;;3.22;;
76105;SDS011;64832;45.274;5.880;2023-03-11T20:10:21;5.57;;;3.50;;
76105;SDS011;64832;45.274;5.880;2023-03-11T20:12:46;4.93;;;3.20;;
76105;SDS011;64832;45.274;5.880;2023-03-11T20:15:11;4.93;;;3.20;;
76105;SDS011;64832;45.274;5.880;2023-03-11T20:17:37;5.15;;;3.45;;
76105;SDS011;64832;45.274;5.880;2023-03-11T20:20:02;3.92;;;3.35;;
76105;SDS011;64832;45.274;5.880;2023-03-11T20:22:28;5.47;;;3.30;;
76105;SDS011;64832;45.274;5.880;2023-03-11T20:24:53;4.75;;;3.10;;
76105;SDS011;64832;45.274;5.880;2023-03-11T20:27:19;3.40;;;3.10;;
76105;SDS011;64832;45.274;5.880;2023-03-11T20:29:44;4.22;;;2.95;;
76105;SDS011;64832;45.274;5.880;2023-03-11T20:32:10;4.68;;;3.15;;
76105;SDS011;64832;45.274;5.880;2023-03-11T20:34:35;3.92;;;3.08;;
76105;SDS011;64832;45.274;5.880;2023-03-11T20:37:01;4.55;;;3.40;;
76105;SDS011;64832;45.274;5.880;2023-03-11T20:39:26;6.57;;;3.45;;
76105;SDS011;64832;45.274;5.880;2023-03-11T20:41:52;4.68;;;3.15;;
76105;SDS011;64832;45.274;5.880;2023-03-11T20:44:17;4.60;;;2.95;;
76105;SDS011;64832;45.274;5.880;2023-03-11T20:46:42;4.63;;;3.20;;
76105;SDS011;64832;45.274;5.880;2023-03-11T20:49:08;4.45;;;3.13;;
76105;SDS011;64832;45.274;5.880;2023-03-11T20:51:34;3.60;;;2.85;;
76105;SDS011;64832;45.274;5.880;2023-03-11T20:53:59;4.10;;;3.03;;
76105;SDS011;64832;45.274;5.880;2023-03-11T20:56:25;4.05;;;2.90;;
76105;SDS011;64832;45.274;5.880;2023-03-11T20:58:51;5.03;;;3.15;;
76105;SDS011;64832;45.274;5.880;2023-03-11T21:01:23;4.13;;;2.95;;
76105;SDS011;64832;45.274;5.880;2023-03-11T21:03:54;5.20;;;3.05;;
76105;SDS011;64832;45.274;5.880;2023-03-11T21:06:22;4.60;;;3.00;;
